Saint Francis River (Missouri), Mill Creek (07035800)

StateMissouriCurrentPotential (75 cfs)
RiverSaint Francis RiverFlood - The river is flooding. Obstacles can be treacherous or deadly. The river should be avoided at this stage for casual trips and definitely for the inexperienced. Trips should be attempted only with protective gear and equipment.Flood(none)
Updated2019-10-14 2:30 (36 minutes ago)High - The river is high and potentially dangerous, especially for the young and / or inexperienced. Normal stream obstacles are sometimes difficult to navigate. Extended distances can be attempted, but canoe travel may not be advisable.High(none)
Discharge75 cfs (median: 21 cfs)Good - Conditions are ideal for a canoe or kayak. Boats typically will drag on fewer than one-quarter of riffles, if at all, and portages are unnecessary or rare. Normal float lengths can be attempted without a problem.Good(none)
Height1.74 feetLow - River is low but can still be floated. Some riffles are okay but most come with significant dragging and might need a portage. Float lengths should be reduced to accommodate low flow, dragging, and portages.Low(none)
TrendFalling (falling over 24 hours)Poor - River is too low to float comfortably. Most or all riffles will drag or must be portaged and some obstacles (such as slick shelf rock) cause undue problems. Avoid the river at this stage for casual paddling trips.Poor(none)
USGSExternal icon USGS Site for Mill Creek (07035800)LocationExternal icon Google Maps

Trending Data

Plot Image
ObservationHeightDischargeMaximum
Discharge
Minimum
Discharge
Mean
Discharge
P05P10P20P25P50
(Median)
P75P80P90P95
2019-10-14 02:30 1.74 75 1590 (2015) 3 (2001) 96 4 7 11 13 21 50 69 198 898
2019-10-14 02:00 1.75 77 1590 (2015) 3 (2001) 96 4 7 11 13 21 50 69 198 898
2019-10-14 01:30 1.75 77 1590 (2015) 3 (2001) 96 4 7 11 13 21 50 69 198 898
2019-10-14 01:00 1.76 78 1590 (2015) 3 (2001) 96 4 7 11 13 21 50 69 198 898
2019-10-14 00:30 1.77 79 1590 (2015) 3 (2001) 96 4 7 11 13 21 50 69 198 898
2019-10-14 00:00 1.78 80 1590 (2015) 3 (2001) 96 4 7 11 13 21 50 69 198 898
2019-10-13 23:30 1.79 81 703 (2015) 3 (2001) 64 4 6 12 13 22 43 53 212 467
2019-10-13 23:00 1.79 81 703 (2015) 3 (2001) 64 4 6 12 13 22 43 53 212 467
2019-10-13 22:30 1.80 83 703 (2015) 3 (2001) 64 4 6 12 13 22 43 53 212 467
2019-10-13 22:00 1.81 84 703 (2015) 3 (2001) 64 4 6 12 13 22 43 53 212 467
2019-10-13 21:30 1.82 85 703 (2015) 3 (2001) 64 4 6 12 13 22 43 53 212 467
2019-10-13 21:00 1.83 87 703 (2015) 3 (2001) 64 4 6 12 13 22 43 53 212 467
2019-10-13 20:30 1.83 87 703 (2015) 3 (2001) 64 4 6 12 13 22 43 53 212 467
2019-10-13 20:00 1.84 88 703 (2015) 3 (2001) 64 4 6 12 13 22 43 53 212 467
2019-10-13 19:30 1.85 89 703 (2015) 3 (2001) 64 4 6 12 13 22 43 53 212 467
2019-10-13 19:00 1.86 91 703 (2015) 3 (2001) 64 4 6 12 13 22 43 53 212 467
2019-10-13 18:30 1.87 92 703 (2015) 3 (2001) 64 4 6 12 13 22 43 53 212 467
2019-10-13 18:00 1.88 94 703 (2015) 3 (2001) 64 4 6 12 13 22 43 53 212 467
2019-10-13 17:30 1.89 95 703 (2015) 3 (2001) 64 4 6 12 13 22 43 53 212 467
2019-10-13 17:00 1.90 96 703 (2015) 3 (2001) 64 4 6 12 13 22 43 53 212 467
2019-10-13 16:30 1.91 98 703 (2015) 3 (2001) 64 4 6 12 13 22 43 53 212 467
2019-10-13 16:00 1.92 99 703 (2015) 3 (2001) 64 4 6 12 13 22 43 53 212 467
2019-10-13 15:30 1.94 102 703 (2015) 3 (2001) 64 4 6 12 13 22 43 53 212 467
2019-10-13 15:00 1.95 104 703 (2015) 3 (2001) 64 4 6 12 13 22 43 53 212 467
2019-10-13 14:30 1.96 105 703 (2015) 3 (2001) 64 4 6 12 13 22 43 53 212 467
2019-10-13 14:00 1.97 107 703 (2015) 3 (2001) 64 4 6 12 13 22 43 53 212 467
2019-10-13 13:30 1.97 107 703 (2015) 3 (2001) 64 4 6 12 13 22 43 53 212 467
2019-10-13 13:00 1.99 110 703 (2015) 3 (2001) 64 4 6 12 13 22 43 53 212 467
2019-10-13 12:30 2.00 112 703 (2015) 3 (2001) 64 4 6 12 13 22 43 53 212 467
2019-10-13 12:00 2.01 114 703 (2015) 3 (2001) 64 4 6 12 13 22 43 53 212 467
2019-10-13 11:30 2.02 115 703 (2015) 3 (2001) 64 4 6 12 13 22 43 53 212 467
2019-10-13 11:00 2.03 117 703 (2015) 3 (2001) 64 4 6 12 13 22 43 53 212 467
2019-10-13 10:30 2.04 119 703 (2015) 3 (2001) 64 4 6 12 13 22 43 53 212 467
2019-10-13 10:00 2.05 120 703 (2015) 3 (2001) 64 4 6 12 13 22 43 53 212 467
2019-10-13 09:30 2.07 124 703 (2015) 3 (2001) 64 4 6 12 13 22 43 53 212 467
2019-10-13 09:00 2.08 126 703 (2015) 3 (2001) 64 4 6 12 13 22 43 53 212 467
2019-10-13 08:30 2.09 128 703 (2015) 3 (2001) 64 4 6 12 13 22 43 53 212 467
2019-10-13 08:00 2.11 131 703 (2015) 3 (2001) 64 4 6 12 13 22 43 53 212 467
2019-10-13 07:30 2.12 133 703 (2015) 3 (2001) 64 4 6 12 13 22 43 53 212 467
2019-10-13 07:00 2.14 137 703 (2015) 3 (2001) 64 4 6 12 13 22 43 53 212 467
2019-10-13 06:30 2.15 139 703 (2015) 3 (2001) 64 4 6 12 13 22 43 53 212 467
2019-10-13 06:00 2.17 143 703 (2015) 3 (2001) 64 4 6 12 13 22 43 53 212 467
2019-10-13 05:30 2.19 147 703 (2015) 3 (2001) 64 4 6 12 13 22 43 53 212 467
2019-10-13 05:00 2.20 149 703 (2015) 3 (2001) 64 4 6 12 13 22 43 53 212 467
2019-10-13 04:30 2.22 153 703 (2015) 3 (2001) 64 4 6 12 13 22 43 53 212 467
2019-10-13 04:00 2.24 158 703 (2015) 3 (2001) 64 4 6 12 13 22 43 53 212 467
2019-10-13 03:30 2.26 162 703 (2015) 3 (2001) 64 4 6 12 13 22 43 53 212 467
2019-10-13 03:00 2.27 164 703 (2015) 3 (2001) 64 4 6 12 13 22 43 53 212 467
2019-10-13 02:30 2.30 171 703 (2015) 3 (2001) 64 4 6 12 13 22 43 53 212 467
2019-10-13 02:00 2.31 174 703 (2015) 3 (2001) 64 4 6 12 13 22 43 53 212 467
2019-10-13 01:30 2.33 179 703 (2015) 3 (2001) 64 4 6 12 13 22 43 53 212 467
2019-10-13 01:00 2.35 184 703 (2015) 3 (2001) 64 4 6 12 13 22 43 53 212 467
2019-10-13 00:30 2.37 189 703 (2015) 3 (2001) 64 4 6 12 13 22 43 53 212 467
2019-10-13 00:00 2.39 194 703 (2015) 3 (2001) 64 4 6 12 13 22 43 53 212 467
2019-10-12 23:30 2.41 199 299 (2010) 3 (2001) 53 4 7 10 12 25 36 46 225 277
2019-10-12 23:00 2.43 205 299 (2010) 3 (2001) 53 4 7 10 12 25 36 46 225 277
2019-10-12 22:30 2.46 213 299 (2010) 3 (2001) 53 4 7 10 12 25 36 46 225 277
2019-10-12 22:00 2.48 219 299 (2010) 3 (2001) 53 4 7 10 12 25 36 46 225 277
2019-10-12 21:30 2.50 224 299 (2010) 3 (2001) 53 4 7 10 12 25 36 46 225 277
2019-10-12 21:00 2.52 230 299 (2010) 3 (2001) 53 4 7 10 12 25 36 46 225 277
2019-10-12 20:30 2.55 240 299 (2010) 3 (2001) 53 4 7 10 12 25 36 46 225 277
2019-10-12 20:00 2.57 246 299 (2010) 3 (2001) 53 4 7 10 12 25 36 46 225 277
2019-10-12 19:30 2.60 256 299 (2010) 3 (2001) 53 4 7 10 12 25 36 46 225 277
2019-10-12 19:00 2.62 262 299 (2010) 3 (2001) 53 4 7 10 12 25 36 46 225 277
2019-10-12 18:30 2.65 273 299 (2010) 3 (2001) 53 4 7 10 12 25 36 46 225 277
2019-10-12 18:00 2.68 283 299 (2010) 3 (2001) 53 4 7 10 12 25 36 46 225 277
2019-10-12 17:30 2.71 293 299 (2010) 3 (2001) 53 4 7 10 12 25 36 46 225 277
2019-10-12 17:00 2.73 299 299 (2010) 3 (2001) 53 4 7 10 12 25 36 46 225 277
2019-10-12 16:30 2.76 308 299 (2010) 3 (2001) 53 4 7 10 12 25 36 46 225 277
2019-10-12 16:00 2.79 316 299 (2010) 3 (2001) 53 4 7 10 12 25 36 46 225 277
2019-10-12 15:30 2.83 328 299 (2010) 3 (2001) 53 4 7 10 12 25 36 46 225 277
2019-10-12 15:00 2.85 334 299 (2010) 3 (2001) 53 4 7 10 12 25 36 46 225 277
2019-10-12 14:30 2.88 343 299 (2010) 3 (2001) 53 4 7 10 12 25 36 46 225 277
2019-10-12 14:00 2.92 355 299 (2010) 3 (2001) 53 4 7 10 12 25 36 46 225 277
2019-10-12 13:30 2.94 362 299 (2010) 3 (2001) 53 4 7 10 12 25 36 46 225 277
2019-10-12 13:00 2.98 375 299 (2010) 3 (2001) 53 4 7 10 12 25 36 46 225 277
2019-10-12 12:30 3.01 385 299 (2010) 3 (2001) 53 4 7 10 12 25 36 46 225 277
2019-10-12 12:00 3.05 398 299 (2010) 3 (2001) 53 4 7 10 12 25 36 46 225 277
2019-10-12 11:30 3.08 409 299 (2010) 3 (2001) 53 4 7 10 12 25 36 46 225 277
2019-10-12 11:00 3.11 420 299 (2010) 3 (2001) 53 4 7 10 12 25 36 46 225 277
2019-10-12 10:30 3.15 434 299 (2010) 3 (2001) 53 4 7 10 12 25 36 46 225 277
2019-10-12 10:00 3.19 449 299 (2010) 3 (2001) 53 4 7 10 12 25 36 46 225 277
2019-10-12 09:30 3.24 469 299 (2010) 3 (2001) 53 4 7 10 12 25 36 46 225 277
2019-10-12 09:00 3.28 485 299 (2010) 3 (2001) 53 4 7 10 12 25 36 46 225 277
2019-10-12 08:30 3.33 505 299 (2010) 3 (2001) 53 4 7 10 12 25 36 46 225 277
2019-10-12 08:00 3.38 527 299 (2010) 3 (2001) 53 4 7 10 12 25 36 46 225 277
2019-10-12 07:30 3.43 549 299 (2010) 3 (2001) 53 4 7 10 12 25 36 46 225 277
2019-10-12 07:00 3.48 571 299 (2010) 3 (2001) 53 4 7 10 12 25 36 46 225 277
2019-10-12 06:30 3.54 600 299 (2010) 3 (2001) 53 4 7 10 12 25 36 46 225 277
2019-10-12 06:00 3.61 634 299 (2010) 3 (2001) 53 4 7 10 12 25 36 46 225 277
2019-10-12 05:30 3.67 665 299 (2010) 3 (2001) 53 4 7 10 12 25 36 46 225 277
2019-10-12 05:00 3.74 702 299 (2010) 3 (2001) 53 4 7 10 12 25 36 46 225 277
2019-10-12 04:30 3.81 741 299 (2010) 3 (2001) 53 4 7 10 12 25 36 46 225 277
2019-10-12 04:00 3.89 788 299 (2010) 3 (2001) 53 4 7 10 12 25 36 46 225 277
2019-10-12 03:30 3.97 837 299 (2010) 3 (2001) 53 4 7 10 12 25 36 46 225 277
2019-10-12 03:00 4.05 889 299 (2010) 3 (2001) 53 4 7 10 12 25 36 46 225 277
2019-10-12 02:30 4.14 950 299 (2010) 3 (2001) 53 4 7 10 12 25 36 46 225 277
2019-10-12 02:00 4.23 1010 299 (2010) 3 (2001) 53 4 7 10 12 25 36 46 225 277
2019-10-12 01:30 4.31 1070 299 (2010) 3 (2001) 53 4 7 10 12 25 36 46 225 277
2019-10-12 01:00 4.40 1150 299 (2010) 3 (2001) 53 4 7 10 12 25 36 46 225 277
2019-10-12 00:30 4.47 1190 299 (2010) 3 (2001) 53 4 7 10 12 25 36 46 225 277
2019-10-12 00:00 4.54 1250 299 (2010) 3 (2001) 53 4 7 10 12 25 36 46 225 277
2019-10-11 23:30 4.62 1310 506 (2010) 3 (2001) 69 4 7 11 12 26 39 42 278 453
2019-10-11 23:00 4.67 1350 506 (2010) 3 (2001) 69 4 7 11 12 26 39 42 278 453
2019-10-11 22:30 4.72 1390 506 (2010) 3 (2001) 69 4 7 11 12 26 39 42 278 453
2019-10-11 22:00 4.75 1410 506 (2010) 3 (2001) 69 4 7 11 12 26 39 42 278 453
2019-10-11 21:30 4.76 1420 506 (2010) 3 (2001) 69 4 7 11 12 26 39 42 278 453
2019-10-11 21:00 4.75 1410 506 (2010) 3 (2001) 69 4 7 11 12 26 39 42 278 453
2019-10-11 20:30 4.70 1370 506 (2010) 3 (2001) 69 4 7 11 12 26 39 42 278 453
2019-10-11 20:00 4.53 1240 506 (2010) 3 (2001) 69 4 7 11 12 26 39 42 278 453
2019-10-11 19:30 4.10 922 506 (2010) 3 (2001) 69 4 7 11 12 26 39 42 278 453
2019-10-11 19:00 3.22 461 506 (2010) 3 (2001) 69 4 7 11 12 26 39 42 278 453
2019-10-11 18:30 2.34 181 506 (2010) 3 (2001) 69 4 7 11 12 26 39 42 278 453
2019-10-11 18:00 2.00 112 506 (2010) 3 (2001) 69 4 7 11 12 26 39 42 278 453
2019-10-11 17:30 1.84 88 506 (2010) 3 (2001) 69 4 7 11 12 26 39 42 278 453
2019-10-11 17:00 1.71 72 506 (2010) 3 (2001) 69 4 7 11 12 26 39 42 278 453
2019-10-11 16:30 1.62 62 506 (2010) 3 (2001) 69 4 7 11 12 26 39 42 278 453
2019-10-11 16:00 1.58 58 506 (2010) 3 (2001) 69 4 7 11 12 26 39 42 278 453
2019-10-11 15:30 1.54 55 506 (2010) 3 (2001) 69 4 7 11 12 26 39 42 278 453
2019-10-11 15:00 1.52 53 506 (2010) 3 (2001) 69 4 7 11 12 26 39 42 278 453
2019-10-11 14:30 1.50 51 506 (2010) 3 (2001) 69 4 7 11 12 26 39 42 278 453
2019-10-11 14:00 1.48 49 506 (2010) 3 (2001) 69 4 7 11 12 26 39 42 278 453
2019-10-11 13:30 1.48 49 506 (2010) 3 (2001) 69 4 7 11 12 26 39 42 278 453
2019-10-11 13:00 1.47 49 506 (2010) 3 (2001) 69 4 7 11 12 26 39 42 278 453
2019-10-11 12:30 1.46 48 506 (2010) 3 (2001) 69 4 7 11 12 26 39 42 278 453
2019-10-11 12:00 1.45 47 506 (2010) 3 (2001) 69 4 7 11 12 26 39 42 278 453
2019-10-11 11:30 1.43 45 506 (2010) 3 (2001) 69 4 7 11 12 26 39 42 278 453
2019-10-11 11:00 1.42 45 506 (2010) 3 (2001) 69 4 7 11 12 26 39 42 278 453
2019-10-11 10:30 1.39 42 506 (2010) 3 (2001) 69 4 7 11 12 26 39 42 278 453
2019-10-11 10:00 1.37 41 506 (2010) 3 (2001) 69 4 7 11 12 26 39 42 278 453
2019-10-11 09:30 1.33 38 506 (2010) 3 (2001) 69 4 7 11 12 26 39 42 278 453
2019-10-11 09:00 1.28 35 506 (2010) 3 (2001) 69 4 7 11 12 26 39 42 278 453
2019-10-11 08:30 1.24 33 506 (2010) 3 (2001) 69 4 7 11 12 26 39 42 278 453
2019-10-11 08:00 1.19 30 506 (2010) 3 (2001) 69 4 7 11 12 26 39 42 278 453
2019-10-11 07:30 1.16 28 506 (2010) 3 (2001) 69 4 7 11 12 26 39 42 278 453
2019-10-11 07:00 1.13 27 506 (2010) 3 (2001) 69 4 7 11 12 26 39 42 278 453
2019-10-11 06:30 1.11 26 506 (2010) 3 (2001) 69 4 7 11 12 26 39 42 278 453
2019-10-11 06:00 1.09 25 506 (2010) 3 (2001) 69 4 7 11 12 26 39 42 278 453
2019-10-11 05:30 1.07 24 506 (2010) 3 (2001) 69 4 7 11 12 26 39 42 278 453
2019-10-11 05:00 1.04 22 506 (2010) 3 (2001) 69 4 7 11 12 26 39 42 278 453
2019-10-11 04:30 1.00 21 506 (2010) 3 (2001) 69 4 7 11 12 26 39 42 278 453
2019-10-11 04:00 0.98 20 506 (2010) 3 (2001) 69 4 7 11 12 26 39 42 278 453
2019-10-11 03:30 0.97 19 506 (2010) 3 (2001) 69 4 7 11 12 26 39 42 278 453
2019-10-11 03:00 0.96 19 506 (2010) 3 (2001) 69 4 7 11 12 26 39 42 278 453
2019-10-11 02:30 0.96 19 506 (2010) 3 (2001) 69 4 7 11 12 26 39 42 278 453
2019-10-11 02:00 0.95 19 506 (2010) 3 (2001) 69 4 7 11 12 26 39 42 278 453
2019-10-11 01:30 0.94 18 506 (2010) 3 (2001) 69 4 7 11 12 26 39 42 278 453
2019-10-11 01:00 0.94 18 506 (2010) 3 (2001) 69 4 7 11 12 26 39 42 278 453
2019-10-11 00:30 0.92 18 506 (2010) 3 (2001) 69 4 7 11 12 26 39 42 278 453
2019-10-11 00:00 0.87 16 506 (2010) 3 (2001) 69 4 7 11 12 26 39 42 278 453
2019-10-10 23:30 0.83 15 1460 (2010) 3 (2001) 106 4 6 10 13 28 40 43 335 1040
2019-10-10 23:00 0.83 15 1460 (2010) 3 (2001) 106 4 6 10 13 28 40 43 335 1040
2019-10-10 22:30 0.83 15 1460 (2010) 3 (2001) 106 4 6 10 13 28 40 43 335 1040
2019-10-10 22:00 0.83 15 1460 (2010) 3 (2001) 106 4 6 10 13 28 40 43 335 1040
2019-10-10 21:30 0.83 15 1460 (2010) 3 (2001) 106 4 6 10 13 28 40 43 335 1040
2019-10-10 21:00 0.82 14 1460 (2010) 3 (2001) 106 4 6 10 13 28 40 43 335 1040
2019-10-10 20:30 0.82 14 1460 (2010) 3 (2001) 106 4 6 10 13 28 40 43 335 1040
2019-10-10 20:00 0.82 14 1460 (2010) 3 (2001) 106 4 6 10 13 28 40 43 335 1040
2019-10-10 19:30 0.82 14 1460 (2010) 3 (2001) 106 4 6 10 13 28 40 43 335 1040
2019-10-10 19:00 0.82 14 1460 (2010) 3 (2001) 106 4 6 10 13 28 40 43 335 1040
2019-10-10 18:30 0.82 14 1460 (2010) 3 (2001) 106 4 6 10 13 28 40 43 335 1040
2019-10-10 18:00 0.83 15 1460 (2010) 3 (2001) 106 4 6 10 13 28 40 43 335 1040
2019-10-10 17:30 0.82 14 1460 (2010) 3 (2001) 106 4 6 10 13 28 40 43 335 1040
2019-10-10 17:00 0.83 15 1460 (2010) 3 (2001) 106 4 6 10 13 28 40 43 335 1040
2019-10-10 16:30 0.83 15 1460 (2010) 3 (2001) 106 4 6 10 13 28 40 43 335 1040
2019-10-10 16:00 0.83 23 1460 (2010) 3 (2001) 106 4 6 10 13 28 40 43 335 1040
2019-10-10 15:30 0.83 23 1460 (2010) 3 (2001) 106 4 6 10 13 28 40 43 335 1040
2019-10-10 15:00 0.83 23 1460 (2010) 3 (2001) 106 4 6 10 13 28 40 43 335 1040
2019-10-10 14:30 0.83 23 1460 (2010) 3 (2001) 106 4 6 10 13 28 40 43 335 1040
2019-10-10 14:00 0.83 23 1460 (2010) 3 (2001) 106 4 6 10 13 28 40 43 335 1040
2019-10-10 13:30 0.83 23 1460 (2010) 3 (2001) 106 4 6 10 13 28 40 43 335 1040
2019-10-10 13:00 0.83 23 1460 (2010) 3 (2001) 106 4 6 10 13 28 40 43 335 1040
2019-10-10 12:30 0.83 23 1460 (2010) 3 (2001) 106 4 6 10 13 28 40 43 335 1040
2019-10-10 12:00 0.83 23 1460 (2010) 3 (2001) 106 4 6 10 13 28 40 43 335 1040
2019-10-10 11:30 0.83 23 1460 (2010) 3 (2001) 106 4 6 10 13 28 40 43 335 1040
2019-10-10 11:00 0.83 23 1460 (2010) 3 (2001) 106 4 6 10 13 28 40 43 335 1040
2019-10-10 10:30 0.82 23 1460 (2010) 3 (2001) 106 4 6 10 13 28 40 43 335 1040
2019-10-10 10:00 0.83 23 1460 (2010) 3 (2001) 106 4 6 10 13 28 40 43 335 1040
2019-10-10 09:30 0.83 23 1460 (2010) 3 (2001) 106 4 6 10 13 28 40 43 335 1040
2019-10-10 09:00 0.83 23 1460 (2010) 3 (2001) 106 4 6 10 13 28 40 43 335 1040
2019-10-10 08:30 0.83 23 1460 (2010) 3 (2001) 106 4 6 10 13 28 40 43 335 1040
2019-10-10 08:00 0.83 23 1460 (2010) 3 (2001) 106 4 6 10 13 28 40 43 335 1040
2019-10-10 07:30 0.83 23 1460 (2010) 3 (2001) 106 4 6 10 13 28 40 43 335 1040
2019-10-10 07:00 0.83 23 1460 (2010) 3 (2001) 106 4 6 10 13 28 40 43 335 1040
2019-10-10 06:30 0.83 23 1460 (2010) 3 (2001) 106 4 6 10 13 28 40 43 335 1040
2019-10-10 06:00 0.83 23 1460 (2010) 3 (2001) 106 4 6 10 13 28 40 43 335 1040
2019-10-10 05:30 0.83 23 1460 (2010) 3 (2001) 106 4 6 10 13 28 40 43 335 1040
2019-10-10 05:00 0.83 23 1460 (2010) 3 (2001) 106 4 6 10 13 28 40 43 335 1040
2019-10-10 04:30 0.83 23 1460 (2010) 3 (2001) 106 4 6 10 13 28 40 43 335 1040
2019-10-10 04:00 0.83 23 1460 (2010) 3 (2001) 106 4 6 10 13 28 40 43 335 1040
2019-10-10 03:30 0.83 23 1460 (2010) 3 (2001) 106 4 6 10 13 28 40 43 335 1040
2019-10-10 03:00 0.83 23 1460 (2010) 3 (2001) 106 4 6 10 13 28 40 43 335 1040
2019-10-10 02:30 0.83 23 1460 (2010) 3 (2001) 106 4 6 10 13 28 40 43 335 1040
2019-10-10 02:00 0.83 23 1460 (2010) 3 (2001) 106 4 6 10 13 28 40 43 335 1040
2019-10-10 01:30 0.83 23 1460 (2010) 3 (2001) 106 4 6 10 13 28 40 43 335 1040
2019-10-10 01:00 0.83 23 1460 (2010) 3 (2001) 106 4 6 10 13 28 40 43 335 1040
2019-10-10 00:30 0.83 23 1460 (2010) 3 (2001) 106 4 6 10 13 28 40 43 335 1040
2019-10-10 00:00 0.83 23 1460 (2010) 3 (2001) 106 4 6 10 13 28 40 43 335 1040
2019-10-09 23:30 0.83 23 2340 (2010) 4 (2001) 119 4 5 10 12 21 36 39 184 1340
2019-10-09 23:00 0.83 23 2340 (2010) 4 (2001) 119 4 5 10 12 21 36 39 184 1340
2019-10-09 22:30 0.83 23 2340 (2010) 4 (2001) 119 4 5 10 12 21 36 39 184 1340
2019-10-09 22:00 0.83 23 2340 (2010) 4 (2001) 119 4 5 10 12 21 36 39 184 1340
2019-10-09 21:30 0.83 23 2340 (2010) 4 (2001) 119 4 5 10 12 21 36 39 184 1340
2019-10-09 21:00 0.83 23 2340 (2010) 4 (2001) 119 4 5 10 12 21 36 39 184 1340
2019-10-09 20:30 0.83 23 2340 (2010) 4 (2001) 119 4 5 10 12 21 36 39 184 1340
2019-10-09 20:00 0.83 23 2340 (2010) 4 (2001) 119 4 5 10 12 21 36 39 184 1340
2019-10-09 19:30 0.83 23 2340 (2010) 4 (2001) 119 4 5 10 12 21 36 39 184 1340
2019-10-09 19:00 0.83 23 2340 (2010) 4 (2001) 119 4 5 10 12 21 36 39 184 1340
2019-10-09 18:30 0.83 23 2340 (2010) 4 (2001) 119 4 5 10 12 21 36 39 184 1340
2019-10-09 18:00 0.83 23 2340 (2010) 4 (2001) 119 4 5 10 12 21 36 39 184 1340
2019-10-09 17:30 0.83 23 2340 (2010) 4 (2001) 119 4 5 10 12 21 36 39 184 1340
2019-10-09 17:00 0.83 23 2340 (2010) 4 (2001) 119 4 5 10 12 21 36 39 184 1340
2019-10-09 16:30 0.83 23 2340 (2010) 4 (2001) 119 4 5 10 12 21 36 39 184 1340
2019-10-09 16:00 0.83 23 2340 (2010) 4 (2001) 119 4 5 10 12 21 36 39 184 1340
2019-10-09 15:30 0.83 23 2340 (2010) 4 (2001) 119 4 5 10 12 21 36 39 184 1340
2019-10-09 15:00 0.83 23 2340 (2010) 4 (2001) 119 4 5 10 12 21 36 39 184 1340
2019-10-09 14:30 0.83 23 2340 (2010) 4 (2001) 119 4 5 10 12 21 36 39 184 1340
2019-10-09 14:00 0.83 23 2340 (2010) 4 (2001) 119 4 5 10 12 21 36 39 184 1340
2019-10-09 13:30 0.83 23 2340 (2010) 4 (2001) 119 4 5 10 12 21 36 39 184 1340
2019-10-09 13:00 0.83 23 2340 (2010) 4 (2001) 119 4 5 10 12 21 36 39 184 1340
2019-10-09 12:30 0.84 24 2340 (2010) 4 (2001) 119 4 5 10 12 21 36 39 184 1340
2019-10-09 12:00 0.83 23 2340 (2010) 4 (2001) 119 4 5 10 12 21 36 39 184 1340
2019-10-09 11:30 0.83 23 2340 (2010) 4 (2001) 119 4 5 10 12 21 36 39 184 1340
2019-10-09 11:00 0.83 23 2340 (2010) 4 (2001) 119 4 5 10 12 21 36 39 184 1340
2019-10-09 10:30 0.83 23 2340 (2010) 4 (2001) 119 4 5 10 12 21 36 39 184 1340
2019-10-09 10:00 0.83 23 2340 (2010) 4 (2001) 119 4 5 10 12 21 36 39 184 1340
2019-10-09 09:30 0.83 23 2340 (2010) 4 (2001) 119 4 5 10 12 21 36 39 184 1340
2019-10-09 09:00 0.83 23 2340 (2010) 4 (2001) 119 4 5 10 12 21 36 39 184 1340
2019-10-09 08:30 0.83 23 2340 (2010) 4 (2001) 119 4 5 10 12 21 36 39 184 1340
2019-10-09 08:00 0.83 23 2340 (2010) 4 (2001) 119 4 5 10 12 21 36 39 184 1340
2019-10-09 07:30 0.83 23 2340 (2010) 4 (2001) 119 4 5 10 12 21 36 39 184 1340
2019-10-09 07:00 0.83 23 2340 (2010) 4 (2001) 119 4 5 10 12 21 36 39 184 1340
2019-10-09 06:30 0.83 23 2340 (2010) 4 (2001) 119 4 5 10 12 21 36 39 184 1340
2019-10-09 06:00 0.83 23 2340 (2010) 4 (2001) 119 4 5 10 12 21 36 39 184 1340
2019-10-09 05:30 0.83 23 2340 (2010) 4 (2001) 119 4 5 10 12 21 36 39 184 1340
2019-10-09 05:00 0.83 23 2340 (2010) 4 (2001) 119 4 5 10 12 21 36 39 184 1340
2019-10-09 04:30 0.83 23 2340 (2010) 4 (2001) 119 4 5 10 12 21 36 39 184 1340
2019-10-09 04:00 0.83 23 2340 (2010) 4 (2001) 119 4 5 10 12 21 36 39 184 1340
2019-10-09 03:30 0.83 23 2340 (2010) 4 (2001) 119 4 5 10 12 21 36 39 184 1340
2019-10-09 03:00 0.83 23 2340 (2010) 4 (2001) 119 4 5 10 12 21 36 39 184 1340
2019-10-09 02:30 0.83 23 2340 (2010) 4 (2001) 119 4 5 10 12 21 36 39 184 1340
2019-10-09 02:00 0.83 23 2340 (2010) 4 (2001) 119 4 5 10 12 21 36 39 184 1340
2019-10-09 01:30 0.83 23 2340 (2010) 4 (2001) 119 4 5 10 12 21 36 39 184 1340
2019-10-09 01:00 0.83 23 2340 (2010) 4 (2001) 119 4 5 10 12 21 36 39 184 1340
2019-10-09 00:30 0.83 23 2340 (2010) 4 (2001) 119 4 5 10 12 21 36 39 184 1340
2019-10-09 00:00 0.83 23 2340 (2010) 4 (2001) 119 4 5 10 12 21 36 39 184 1340
2019-10-08 23:30 0.83 23 333 (1994) 4 (2001) 39 5 5 9 10 18 43 48 99 220
2019-10-08 23:00 0.83 23 333 (1994) 4 (2001) 39 5 5 9 10 18 43 48 99 220
2019-10-08 22:30 0.83 23 333 (1994) 4 (2001) 39 5 5 9 10 18 43 48 99 220
2019-10-08 22:00 0.83 23 333 (1994) 4 (2001) 39 5 5 9 10 18 43 48 99 220
2019-10-08 21:30 0.83 23 333 (1994) 4 (2001) 39 5 5 9 10 18 43 48 99 220
2019-10-08 21:00 0.83 23 333 (1994) 4 (2001) 39 5 5 9 10 18 43 48 99 220
2019-10-08 20:30 0.83 23 333 (1994) 4 (2001) 39 5 5 9 10 18 43 48 99 220
2019-10-08 20:00 0.83 23 333 (1994) 4 (2001) 39 5 5 9 10 18 43 48 99 220
2019-10-08 19:30 0.83 23 333 (1994) 4 (2001) 39 5 5 9 10 18 43 48 99 220
2019-10-08 19:00 0.83 23 333 (1994) 4 (2001) 39 5 5 9 10 18 43 48 99 220
2019-10-08 18:30 0.83 23 333 (1994) 4 (2001) 39 5 5 9 10 18 43 48 99 220
2019-10-08 18:00 0.83 23 333 (1994) 4 (2001) 39 5 5 9 10 18 43 48 99 220
2019-10-08 17:30 0.83 23 333 (1994) 4 (2001) 39 5 5 9 10 18 43 48 99 220
2019-10-08 17:00 0.83 23 333 (1994) 4 (2001) 39 5 5 9 10 18 43 48 99 220
2019-10-08 16:30 0.83 23 333 (1994) 4 (2001) 39 5 5 9 10 18 43 48 99 220
2019-10-08 16:00 0.83 23 333 (1994) 4 (2001) 39 5 5 9 10 18 43 48 99 220
2019-10-08 15:30 0.83 23 333 (1994) 4 (2001) 39 5 5 9 10 18 43 48 99 220
2019-10-08 15:00 0.83 23 333 (1994) 4 (2001) 39 5 5 9 10 18 43 48 99 220
2019-10-08 14:30 0.83 23 333 (1994) 4 (2001) 39 5 5 9 10 18 43 48 99 220
2019-10-08 14:00 0.83 23 333 (1994) 4 (2001) 39 5 5 9 10 18 43 48 99 220
2019-10-08 13:30 0.83 23 333 (1994) 4 (2001) 39 5 5 9 10 18 43 48 99 220
2019-10-08 13:00 0.83 23 333 (1994) 4 (2001) 39 5 5 9 10 18 43 48 99 220
2019-10-08 12:30 0.83 23 333 (1994) 4 (2001) 39 5 5 9 10 18 43 48 99 220
2019-10-08 12:00 0.83 23 333 (1994) 4 (2001) 39 5 5 9 10 18 43 48 99 220
2019-10-08 11:30 0.83 23 333 (1994) 4 (2001) 39 5 5 9 10 18 43 48 99 220
2019-10-08 11:00 0.83 23 333 (1994) 4 (2001) 39 5 5 9 10 18 43 48 99 220
2019-10-08 10:30 0.83 23 333 (1994) 4 (2001) 39 5 5 9 10 18 43 48 99 220
2019-10-08 10:00 0.83 23 333 (1994) 4 (2001) 39 5 5 9 10 18 43 48 99 220
2019-10-08 09:30 0.83 23 333 (1994) 4 (2001) 39 5 5 9 10 18 43 48 99 220
2019-10-08 09:00 0.83 23 333 (1994) 4 (2001) 39 5 5 9 10 18 43 48 99 220
2019-10-08 08:30 0.83 23 333 (1994) 4 (2001) 39 5 5 9 10 18 43 48 99 220
2019-10-08 08:00 0.83 23 333 (1994) 4 (2001) 39 5 5 9 10 18 43 48 99 220
2019-10-08 07:30 0.83 23 333 (1994) 4 (2001) 39 5 5 9 10 18 43 48 99 220
2019-10-08 07:00 0.83 23 333 (1994) 4 (2001) 39 5 5 9 10 18 43 48 99 220
2019-10-08 06:30 0.83 23 333 (1994) 4 (2001) 39 5 5 9 10 18 43 48 99 220
2019-10-08 06:00 0.83 23 333 (1994) 4 (2001) 39 5 5 9 10 18 43 48 99 220
2019-10-08 05:30 0.83 23 333 (1994) 4 (2001) 39 5 5 9 10 18 43 48 99 220
2019-10-08 05:00 0.83 23 333 (1994) 4 (2001) 39 5 5 9 10 18 43 48 99 220
2019-10-08 04:30 0.83 23 333 (1994) 4 (2001) 39 5 5 9 10 18 43 48 99 220
2019-10-08 04:00 0.83 23 333 (1994) 4 (2001) 39 5 5 9 10 18 43 48 99 220
2019-10-08 03:30 0.83 23 333 (1994) 4 (2001) 39 5 5 9 10 18 43 48 99 220
2019-10-08 03:00 0.83 23 333 (1994) 4 (2001) 39 5 5 9 10 18 43 48 99 220
2019-10-08 02:30 0.83 23 333 (1994) 4 (2001) 39 5 5 9 10 18 43 48 99 220
2019-10-08 02:00 0.83 23 333 (1994) 4 (2001) 39 5 5 9 10 18 43 48 99 220
2019-10-08 01:30 0.83 23 333 (1994) 4 (2001) 39 5 5 9 10 18 43 48 99 220
2019-10-08 01:00 0.83 23 333 (1994) 4 (2001) 39 5 5 9 10 18 43 48 99 220
2019-10-08 00:30 0.83 23 333 (1994) 4 (2001) 39 5 5 9 10 18 43 48 99 220
2019-10-08 00:00 0.83 23 333 (1994) 4 (2001) 39 5 5 9 10 18 43 48 99 220
2019-10-07 23:30 0.83 23 381 (1994) 4 (2001) 41 5 6 8 10 20 49 52 56 253
2019-10-07 23:00 0.83 23 381 (1994) 4 (2001) 41 5 6 8 10 20 49 52 56 253
2019-10-07 22:30 0.83 23 381 (1994) 4 (2001) 41 5 6 8 10 20 49 52 56 253
2019-10-07 22:00 0.83 23 381 (1994) 4 (2001) 41 5 6 8 10 20 49 52 56 253
2019-10-07 21:30 0.83 23 381 (1994) 4 (2001) 41 5 6 8 10 20 49 52 56 253
2019-10-07 21:00 0.83 23 381 (1994) 4 (2001) 41 5 6 8 10 20 49 52 56 253
2019-10-07 20:30 0.83 23 381 (1994) 4 (2001) 41 5 6 8 10 20 49 52 56 253
2019-10-07 20:00 0.83 23 381 (1994) 4 (2001) 41 5 6 8 10 20 49 52 56 253
2019-10-07 19:30 0.83 23 381 (1994) 4 (2001) 41 5 6 8 10 20 49 52 56 253
2019-10-07 19:00 0.83 23 381 (1994) 4 (2001) 41 5 6 8 10 20 49 52 56 253
2019-10-07 18:30 0.83 23 381 (1994) 4 (2001) 41 5 6 8 10 20 49 52 56 253
2019-10-07 18:00 0.83 23 381 (1994) 4 (2001) 41 5 6 8 10 20 49 52 56 253
2019-10-07 17:30 0.83 23 381 (1994) 4 (2001) 41 5 6 8 10 20 49 52 56 253
2019-10-07 17:00 0.83 23 381 (1994) 4 (2001) 41 5 6 8 10 20 49 52 56 253
2019-10-07 16:30 0.83 23 381 (1994) 4 (2001) 41 5 6 8 10 20 49 52 56 253
2019-10-07 16:00 0.83 23 381 (1994) 4 (2001) 41 5 6 8 10 20 49 52 56 253
2019-10-07 15:30 0.83 23 381 (1994) 4 (2001) 41 5 6 8 10 20 49 52 56 253
2019-10-07 15:00 0.83 23 381 (1994) 4 (2001) 41 5 6 8 10 20 49 52 56 253
2019-10-07 14:30 0.84 24 381 (1994) 4 (2001) 41 5 6 8 10 20 49 52 56 253
2019-10-07 14:00 0.84 24 381 (1994) 4 (2001) 41 5 6 8 10 20 49 52 56 253
2019-10-07 13:30 0.84 24 381 (1994) 4 (2001) 41 5 6 8 10 20 49 52 56 253
2019-10-07 13:00 0.84 24 381 (1994) 4 (2001) 41 5 6 8 10 20 49 52 56 253
2019-10-07 12:30 0.84 24 381 (1994) 4 (2001) 41 5 6 8 10 20 49 52 56 253
2019-10-07 12:00 0.84 24 381 (1994) 4 (2001) 41 5 6 8 10 20 49 52 56 253
2019-10-07 11:30 0.83 23 381 (1994) 4 (2001) 41 5 6 8 10 20 49 52 56 253
2019-10-07 11:00 0.83 23 381 (1994) 4 (2001) 41 5 6 8 10 20 49 52 56 253
2019-10-07 10:30 0.83 23 381 (1994) 4 (2001) 41 5 6 8 10 20 49 52 56 253
2019-10-07 10:00 0.83 23 381 (1994) 4 (2001) 41 5 6 8 10 20 49 52 56 253
2019-10-07 09:30 0.83 23 381 (1994) 4 (2001) 41 5 6 8 10 20 49 52 56 253
2019-10-07 09:00 0.83 23 381 (1994) 4 (2001) 41 5 6 8 10 20 49 52 56 253
2019-10-07 08:30 0.84 24 381 (1994) 4 (2001) 41 5 6 8 10 20 49 52 56 253
2019-10-07 08:00 0.83 23 381 (1994) 4 (2001) 41 5 6 8 10 20 49 52 56 253
2019-10-07 07:30 0.84 24 381 (1994) 4 (2001) 41 5 6 8 10 20 49 52 56 253
2019-10-07 07:00 0.84 24 381 (1994) 4 (2001) 41 5 6 8 10 20 49 52 56 253
2019-10-07 06:30 0.84 24 381 (1994) 4 (2001) 41 5 6 8 10 20 49 52 56 253
2019-10-07 06:00 0.84 24 381 (1994) 4 (2001) 41 5 6 8 10 20 49 52 56 253
2019-10-07 05:30 0.84 24 381 (1994) 4 (2001) 41 5 6 8 10 20 49 52 56 253
2019-10-07 05:00 0.84 24 381 (1994) 4 (2001) 41 5 6 8 10 20 49 52 56 253
2019-10-07 04:30 0.84 24 381 (1994) 4 (2001) 41 5 6 8 10 20 49 52 56 253
2019-10-07 04:00 0.84 24 381 (1994) 4 (2001) 41 5 6 8 10 20 49 52 56 253
2019-10-07 03:30 0.84 24 381 (1994) 4 (2001) 41 5 6 8 10 20 49 52 56 253
2019-10-07 03:00 0.84 24 381 (1994) 4 (2001) 41 5 6 8 10 20 49 52 56 253
2019-10-07 02:30 0.84 24 381 (1994) 4 (2001) 41 5 6 8 10 20 49 52 56 253
2019-10-07 02:00 0.84 24 381 (1994) 4 (2001) 41 5 6 8 10 20 49 52 56 253
2019-10-07 01:30 0.84 24 381 (1994) 4 (2001) 41 5 6 8 10 20 49 52 56 253
2019-10-07 01:00 0.83 23 381 (1994) 4 (2001) 41 5 6 8 10 20 49 52 56 253
2019-10-07 00:30 0.83 23 381 (1994) 4 (2001) 41 5 6 8 10 20 49 52 56 253
2019-10-07 00:00 0.83 23 381 (1994) 4 (2001) 41 5 6 8 10 20 49 52 56 253

A total of 342 rows are displayed for years 1988 through 2018.

Trips for Saint Francis River (Missouri), Mill Creek (07035800)

DateStartEndDistanceConditionDischargeHeightFishingDetails

A total of 0 rows are displayed.

Condition Descriptions

Fishing Conditions

Fish Species

Notes

Classic Trip List

The classic River Trips application is still available for use. It is updated with the new system using a data retrofit. It is no longer maintained. The original River Trips application is no longer updated (as of 1 Dec 2016) but can be checked for errors or for the condition of the data before it was converted to the new system.